sensor_id;sensor_type;location;lat;lon;timestamp;P1;durP1;ratioP1;P2;durP2;ratioP2
32146;SDS011;32190;49.112;8.598;2023-06-19T00:00:28;1.83;;;1.73;;
32146;SDS011;32190;49.112;8.598;2023-06-19T00:06:20;1.85;;;1.75;;
32146;SDS011;32190;49.112;8.598;2023-06-19T00:12:11;1.92;;;1.83;;
32146;SDS011;32190;49.112;8.598;2023-06-19T00:18:01;1.98;;;1.88;;
32146;SDS011;32190;49.112;8.598;2023-06-19T00:23:52;1.75;;;1.65;;
32146;SDS011;32190;49.112;8.598;2023-06-19T00:29:43;2.13;;;1.95;;
32146;SDS011;32190;49.112;8.598;2023-06-19T00:35:33;2.05;;;1.67;;
32146;SDS011;32190;49.112;8.598;2023-06-19T00:41:25;1.98;;;1.88;;
32146;SDS011;32190;49.112;8.598;2023-06-19T00:47:17;4.03;;;2.35;;
32146;SDS011;32190;49.112;8.598;2023-06-19T00:53:08;2.17;;;2.08;;
32146;SDS011;32190;49.112;8.598;2023-06-19T00:58:58;2.08;;;1.92;;
32146;SDS011;32190;49.112;8.598;2023-06-19T01:04:50;2.28;;;1.90;;
32146;SDS011;32190;49.112;8.598;2023-06-19T01:10:44;1.63;;;1.52;;
32146;SDS011;32190;49.112;8.598;2023-06-19T01:16:41;3.85;;;1.80;;
32146;SDS011;32190;49.112;8.598;2023-06-19T01:22:33;1.55;;;1.45;;
32146;SDS011;32190;49.112;8.598;2023-06-19T01:28:23;1.20;;;1.20;;
32146;SDS011;32190;49.112;8.598;2023-06-19T01:34:16;1.08;;;1.08;;
32146;SDS011;32190;49.112;8.598;2023-06-19T01:40:10;1.20;;;1.10;;
32146;SDS011;32190;49.112;8.598;2023-06-19T01:46:02;0.93;;;0.93;;
32146;SDS011;32190;49.112;8.598;2023-06-19T01:51:53;0.80;;;0.80;;
32146;SDS011;32190;49.112;8.598;2023-06-19T01:57:43;0.70;;;0.70;;
32146;SDS011;32190;49.112;8.598;2023-06-19T02:03:35;0.80;;;0.80;;
32146;SDS011;32190;49.112;8.598;2023-06-19T02:09:26;0.70;;;0.70;;
32146;SDS011;32190;49.112;8.598;2023-06-19T02:15:17;1.02;;;0.63;;
32146;SDS011;32190;49.112;8.598;2023-06-19T02:21:07;0.45;;;0.45;;
32146;SDS011;32190;49.112;8.598;2023-06-19T02:26:58;0.60;;;0.60;;
32146;SDS011;32190;49.112;8.598;2023-06-19T02:32:48;0.60;;;0.60;;
32146;SDS011;32190;49.112;8.598;2023-06-19T02:38:39;0.60;;;0.60;;
32146;SDS011;32190;49.112;8.598;2023-06-19T02:44:30;0.52;;;0.52;;
32146;SDS011;32190;49.112;8.598;2023-06-19T02:50:20;0.50;;;0.50;;
32146;SDS011;32190;49.112;8.598;2023-06-19T02:56:11;0.50;;;0.50;;
32146;SDS011;32190;49.112;8.598;2023-06-19T03:02:02;0.40;;;0.40;;
32146;SDS011;32190;49.112;8.598;2023-06-19T03:07:53;0.50;;;0.50;;
32146;SDS011;32190;49.112;8.598;2023-06-19T03:13:50;0.43;;;0.43;;
32146;SDS011;32190;49.112;8.598;2023-06-19T03:19:42;0.57;;;0.57;;
32146;SDS011;32190;49.112;8.598;2023-06-19T03:25:32;0.50;;;0.50;;
32146;SDS011;32190;49.112;8.598;2023-06-19T03:31:24;0.70;;;0.70;;
32146;SDS011;32190;49.112;8.598;2023-06-19T03:37:15;0.55;;;0.55;;
32146;SDS011;32190;49.112;8.598;2023-06-19T03:43:06;1.08;;;0.73;;
32146;SDS011;32190;49.112;8.598;2023-06-19T03:48:56;0.70;;;0.70;;
32146;SDS011;32190;49.112;8.598;2023-06-19T03:54:47;0.80;;;0.77;;
32146;SDS011;32190;49.112;8.598;2023-06-19T04:00:37;0.73;;;0.73;;
32146;SDS011;32190;49.112;8.598;2023-06-19T04:06:28;0.73;;;0.73;;
32146;SDS011;32190;49.112;8.598;2023-06-19T04:12:18;0.75;;;0.75;;
32146;SDS011;32190;49.112;8.598;2023-06-19T04:18:09;1.63;;;0.77;;
32146;SDS011;32190;49.112;8.598;2023-06-19T04:24:00;0.90;;;0.90;;
32146;SDS011;32190;49.112;8.598;2023-06-19T04:29:50;0.75;;;0.75;;
32146;SDS011;32190;49.112;8.598;2023-06-19T04:35:43;0.70;;;0.70;;
32146;SDS011;32190;49.112;8.598;2023-06-19T04:41:33;0.80;;;0.80;;
32146;SDS011;32190;49.112;8.598;2023-06-19T04:47:24;0.80;;;0.80;;
32146;SDS011;32190;49.112;8.598;2023-06-19T04:53:14;1.15;;;0.85;;
32146;SDS011;32190;49.112;8.598;2023-06-19T04:59:05;1.25;;;1.20;;
32146;SDS011;32190;49.112;8.598;2023-06-19T05:04:55;0.85;;;0.82;;
32146;SDS011;32190;49.112;8.598;2023-06-19T05:10:46;1.02;;;1.02;;
32146;SDS011;32190;49.112;8.598;2023-06-19T05:16:36;0.52;;;0.52;;
32146;SDS011;32190;49.112;8.598;2023-06-19T05:22:27;0.80;;;0.80;;
32146;SDS011;32190;49.112;8.598;2023-06-19T05:28:18;0.77;;;0.77;;
32146;SDS011;32190;49.112;8.598;2023-06-19T05:34:08;2.20;;;0.73;;
32146;SDS011;32190;49.112;8.598;2023-06-19T05:39:59;0.68;;;0.68;;
32146;SDS011;32190;49.112;8.598;2023-06-19T05:45:49;1.02;;;0.98;;
32146;SDS011;32190;49.112;8.598;2023-06-19T05:51:40;1.10;;;1.10;;
32146;SDS011;32190;49.112;8.598;2023-06-19T05:57:31;0.93;;;0.93;;
32146;SDS011;32190;49.112;8.598;2023-06-19T06:03:22;0.70;;;0.70;;
32146;SDS011;32190;49.112;8.598;2023-06-19T06:09:12;1.30;;;0.95;;
32146;SDS011;32190;49.112;8.598;2023-06-19T06:15:04;1.25;;;1.15;;
32146;SDS011;32190;49.112;8.598;2023-06-19T06:20:55;0.80;;;0.80;;
32146;SDS011;32190;49.112;8.598;2023-06-19T06:26:46;0.80;;;0.80;;
32146;SDS011;32190;49.112;8.598;2023-06-19T06:32:36;1.00;;;1.00;;
32146;SDS011;32190;49.112;8.598;2023-06-19T06:38:27;1.23;;;1.23;;
32146;SDS011;32190;49.112;8.598;2023-06-19T06:44:18;0.82;;;0.82;;
32146;SDS011;32190;49.112;8.598;2023-06-19T06:50:08;0.68;;;0.68;;
32146;SDS011;32190;49.112;8.598;2023-06-19T06:55:59;1.10;;;0.98;;
32146;SDS011;32190;49.112;8.598;2023-06-19T07:01:50;1.77;;;0.90;;
32146;SDS011;32190;49.112;8.598;2023-06-19T07:07:41;0.70;;;0.70;;
32146;SDS011;32190;49.112;8.598;2023-06-19T07:13:31;0.70;;;0.70;;
32146;SDS011;32190;49.112;8.598;2023-06-19T07:19:22;1.35;;;0.90;;
32146;SDS011;32190;49.112;8.598;2023-06-19T07:25:13;1.95;;;0.70;;
32146;SDS011;32190;49.112;8.598;2023-06-19T07:31:04;0.70;;;0.70;;
32146;SDS011;32190;49.112;8.598;2023-06-19T07:36:55;0.93;;;0.52;;
32146;SDS011;32190;49.112;8.598;2023-06-19T07:42:45;0.70;;;0.70;;
32146;SDS011;32190;49.112;8.598;2023-06-19T07:48:36;1.20;;;1.10;;
32146;SDS011;32190;49.112;8.598;2023-06-19T07:54:27;0.80;;;0.80;;
32146;SDS011;32190;49.112;8.598;2023-06-19T08:00:17;0.68;;;0.68;;
32146;SDS011;32190;49.112;8.598;2023-06-19T08:06:08;0.93;;;0.93;;
32146;SDS011;32190;49.112;8.598;2023-06-19T08:11:58;2.25;;;1.00;;
32146;SDS011;32190;49.112;8.598;2023-06-19T08:17:49;1.55;;;1.00;;
32146;SDS011;32190;49.112;8.598;2023-06-19T08:23:40;0.90;;;0.90;;
32146;SDS011;32190;49.112;8.598;2023-06-19T08:29:33;1.10;;;1.10;;
32146;SDS011;32190;49.112;8.598;2023-06-19T08:35:24;1.08;;;1.05;;
32146;SDS011;32190;49.112;8.598;2023-06-19T08:41:17;1.15;;;1.15;;
32146;SDS011;32190;49.112;8.598;2023-06-19T08:47:09;1.15;;;1.05;;
32146;SDS011;32190;49.112;8.598;2023-06-19T08:53:00;1.20;;;1.20;;
32146;SDS011;32190;49.112;8.598;2023-06-19T08:58:50;1.38;;;1.00;;
32146;SDS011;32190;49.112;8.598;2023-06-19T09:04:41;1.55;;;1.45;;
32146;SDS011;32190;49.112;8.598;2023-06-19T09:10:31;2.03;;;1.33;;
32146;SDS011;32190;49.112;8.598;2023-06-19T09:16:22;1.70;;;1.60;;
32146;SDS011;32190;49.112;8.598;2023-06-19T09:22:15;1.25;;;1.20;;
32146;SDS011;32190;49.112;8.598;2023-06-19T09:28:15;1.40;;;1.30;;
32146;SDS011;32190;49.112;8.598;2023-06-19T09:34:13;1.35;;;1.25;;
32146;SDS011;32190;49.112;8.598;2023-06-19T09:40:04;2.92;;;1.88;;
32146;SDS011;32190;49.112;8.598;2023-06-19T09:46:00;1.90;;;1.80;;
32146;SDS011;32190;49.112;8.598;2023-06-19T09:51:52;2.08;;;1.65;;
32146;SDS011;32190;49.112;8.598;2023-06-19T09:57:44;1.35;;;1.25;;
32146;SDS011;32190;49.112;8.598;2023-06-19T10:03:35;2.00;;;1.88;;
32146;SDS011;32190;49.112;8.598;2023-06-19T10:09:32;1.40;;;1.40;;
32146;SDS011;32190;49.112;8.598;2023-06-19T10:15:26;1.25;;;1.15;;
32146;SDS011;32190;49.112;8.598;2023-06-19T10:21:18;1.10;;;1.10;;
32146;SDS011;32190;49.112;8.598;2023-06-19T10:27:10;1.30;;;1.30;;
32146;SDS011;32190;49.112;8.598;2023-06-19T10:33:10;1.60;;;1.50;;
32146;SDS011;32190;49.112;8.598;2023-06-19T10:39:00;1.35;;;1.33;;
32146;SDS011;32190;49.112;8.598;2023-06-19T10:44:51;2.60;;;1.45;;
32146;SDS011;32190;49.112;8.598;2023-06-19T10:50:52;1.58;;;1.48;;
32146;SDS011;32190;49.112;8.598;2023-06-19T10:56:42;1.10;;;1.10;;
32146;SDS011;32190;49.112;8.598;2023-06-19T11:02:33;1.73;;;1.63;;
32146;SDS011;32190;49.112;8.598;2023-06-19T11:08:24;1.63;;;1.52;;
32146;SDS011;32190;49.112;8.598;2023-06-19T11:14:15;1.70;;;1.60;;
32146;SDS011;32190;49.112;8.598;2023-06-19T11:20:12;1.73;;;1.63;;
32146;SDS011;32190;49.112;8.598;2023-06-19T11:26:04;1.38;;;1.30;;
32146;SDS011;32190;49.112;8.598;2023-06-19T11:32:07;2.97;;;1.90;;
32146;SDS011;32190;49.112;8.598;2023-06-19T11:38:00;1.48;;;1.40;;
32146;SDS011;32190;49.112;8.598;2023-06-19T11:43:57;1.67;;;1.58;;
32146;SDS011;32190;49.112;8.598;2023-06-19T11:49:55;1.33;;;1.33;;
32146;SDS011;32190;49.112;8.598;2023-06-19T11:55:45;1.98;;;1.85;;
32146;SDS011;32190;49.112;8.598;2023-06-19T12:01:36;1.98;;;1.88;;
32146;SDS011;32190;49.112;8.598;2023-06-19T12:07:27;3.63;;;1.52;;
32146;SDS011;32190;49.112;8.598;2023-06-19T12:13:17;1.30;;;1.30;;
32146;SDS011;32190;49.112;8.598;2023-06-19T12:19:08;1.15;;;1.15;;
32146;SDS011;32190;49.112;8.598;2023-06-19T12:24:58;1.70;;;1.60;;
32146;SDS011;32190;49.112;8.598;2023-06-19T12:30:49;1.70;;;1.60;;
32146;SDS011;32190;49.112;8.598;2023-06-19T12:36:41;1.50;;;1.40;;
32146;SDS011;32190;49.112;8.598;2023-06-19T12:42:36;1.13;;;1.13;;
32146;SDS011;32190;49.112;8.598;2023-06-19T12:48:27;1.00;;;1.00;;
32146;SDS011;32190;49.112;8.598;2023-06-19T12:54:18;1.60;;;1.50;;
32146;SDS011;32190;49.112;8.598;2023-06-19T13:00:10;1.95;;;1.55;;
32146;SDS011;32190;49.112;8.598;2023-06-19T13:06:02;2.00;;;1.90;;
32146;SDS011;32190;49.112;8.598;2023-06-19T13:11:52;1.83;;;1.73;;
32146;SDS011;32190;49.112;8.598;2023-06-19T13:17:43;1.30;;;1.27;;
32146;SDS011;32190;49.112;8.598;2023-06-19T13:23:33;1.55;;;1.35;;
32146;SDS011;32190;49.112;8.598;2023-06-19T13:29:24;0.98;;;0.98;;
32146;SDS011;32190;49.112;8.598;2023-06-19T13:35:15;1.27;;;1.27;;
32146;SDS011;32190;49.112;8.598;2023-06-19T13:41:05;1.10;;;1.10;;
32146;SDS011;32190;49.112;8.598;2023-06-19T13:46:56;1.55;;;1.45;;
32146;SDS011;32190;49.112;8.598;2023-06-19T13:52:46;1.75;;;1.65;;
32146;SDS011;32190;49.112;8.598;2023-06-19T13:58:37;2.45;;;1.70;;
32146;SDS011;32190;49.112;8.598;2023-06-19T14:04:28;1.17;;;1.17;;
32146;SDS011;32190;49.112;8.598;2023-06-19T14:10:19;1.23;;;1.23;;
32146;SDS011;32190;49.112;8.598;2023-06-19T14:16:09;1.45;;;1.40;;
32146;SDS011;32190;49.112;8.598;2023-06-19T14:22:00;1.42;;;1.42;;
32146;SDS011;32190;49.112;8.598;2023-06-19T14:27:52;1.55;;;1.45;;
32146;SDS011;32190;49.112;8.598;2023-06-19T14:33:42;1.60;;;1.50;;
32146;SDS011;32190;49.112;8.598;2023-06-19T14:39:33;1.05;;;1.05;;
32146;SDS011;32190;49.112;8.598;2023-06-19T14:45:23;1.40;;;1.40;;
32146;SDS011;32190;49.112;8.598;2023-06-19T14:51:14;1.38;;;1.38;;
32146;SDS011;32190;49.112;8.598;2023-06-19T14:57:05;1.33;;;1.30;;
32146;SDS011;32190;49.112;8.598;2023-06-19T15:02:55;1.20;;;1.20;;
32146;SDS011;32190;49.112;8.598;2023-06-19T15:08:46;1.58;;;1.48;;
32146;SDS011;32190;49.112;8.598;2023-06-19T15:14:36;1.20;;;1.10;;
32146;SDS011;32190;49.112;8.598;2023-06-19T15:20:28;1.33;;;1.23;;
32146;SDS011;32190;49.112;8.598;2023-06-19T15:26:19;1.17;;;1.17;;
32146;SDS011;32190;49.112;8.598;2023-06-19T15:32:09;1.85;;;1.75;;
32146;SDS011;32190;49.112;8.598;2023-06-19T15:38:00;1.38;;;1.30;;
32146;SDS011;32190;49.112;8.598;2023-06-19T15:43:50;1.10;;;1.10;;
32146;SDS011;32190;49.112;8.598;2023-06-19T15:49:41;0.93;;;0.93;;
32146;SDS011;32190;49.112;8.598;2023-06-19T15:55:32;1.40;;;1.30;;
32146;SDS011;32190;49.112;8.598;2023-06-19T16:01:22;1.60;;;1.50;;
32146;SDS011;32190;49.112;8.598;2023-06-19T16:07:13;1.08;;;1.08;;
32146;SDS011;32190;49.112;8.598;2023-06-19T16:13:04;1.10;;;1.10;;
32146;SDS011;32190;49.112;8.598;2023-06-19T16:18:54;1.23;;;1.23;;
32146;SDS011;32190;49.112;8.598;2023-06-19T16:24:45;4.90;;;1.60;;
32146;SDS011;32190;49.112;8.598;2023-06-19T16:30:35;1.30;;;1.30;;
32146;SDS011;32190;49.112;8.598;2023-06-19T16:36:26;1.80;;;1.70;;
32146;SDS011;32190;49.112;8.598;2023-06-19T16:42:17;1.10;;;1.10;;
32146;SDS011;32190;49.112;8.598;2023-06-19T16:48:10;1.20;;;1.10;;
32146;SDS011;32190;49.112;8.598;2023-06-19T16:54:00;1.67;;;1.58;;
32146;SDS011;32190;49.112;8.598;2023-06-19T16:59:51;1.85;;;1.30;;
32146;SDS011;32190;49.112;8.598;2023-06-19T17:05:41;1.10;;;1.10;;
32146;SDS011;32190;49.112;8.598;2023-06-19T17:11:32;1.10;;;1.10;;
32146;SDS011;32190;49.112;8.598;2023-06-19T17:17:22;1.33;;;1.33;;
32146;SDS011;32190;49.112;8.598;2023-06-19T17:23:13;1.17;;;1.17;;
32146;SDS011;32190;49.112;8.598;2023-06-19T17:29:04;1.00;;;1.00;;
32146;SDS011;32190;49.112;8.598;2023-06-19T17:34:56;1.00;;;1.00;;
32146;SDS011;32190;49.112;8.598;2023-06-19T17:40:47;1.20;;;1.20;;
32146;SDS011;32190;49.112;8.598;2023-06-19T17:46:38;1.15;;;1.05;;
32146;SDS011;32190;49.112;8.598;2023-06-19T17:52:29;1.00;;;1.00;;
32146;SDS011;32190;49.112;8.598;2023-06-19T17:58:19;1.00;;;1.00;;
32146;SDS011;32190;49.112;8.598;2023-06-19T18:04:11;1.00;;;1.00;;
32146;SDS011;32190;49.112;8.598;2023-06-19T18:10:02;0.77;;;0.77;;
32146;SDS011;32190;49.112;8.598;2023-06-19T18:15:54;0.88;;;0.88;;
32146;SDS011;32190;49.112;8.598;2023-06-19T18:21:45;1.00;;;1.00;;
32146;SDS011;32190;49.112;8.598;2023-06-19T18:27:36;0.85;;;0.85;;
32146;SDS011;32190;49.112;8.598;2023-06-19T18:33:28;0.90;;;0.90;;
32146;SDS011;32190;49.112;8.598;2023-06-19T18:39:19;0.95;;;0.95;;
32146;SDS011;32190;49.112;8.598;2023-06-19T18:45:10;0.80;;;0.80;;
32146;SDS011;32190;49.112;8.598;2023-06-19T18:51:00;1.30;;;1.20;;
32146;SDS011;32190;49.112;8.598;2023-06-19T18:56:51;0.77;;;0.77;;
32146;SDS011;32190;49.112;8.598;2023-06-19T19:02:42;0.93;;;0.93;;
32146;SDS011;32190;49.112;8.598;2023-06-19T19:08:33;0.95;;;0.90;;
32146;SDS011;32190;49.112;8.598;2023-06-19T19:14:23;1.10;;;1.10;;
32146;SDS011;32190;49.112;8.598;2023-06-19T19:20:14;1.42;;;1.33;;
32146;SDS011;32190;49.112;8.598;2023-06-19T19:26:05;1.20;;;1.20;;
32146;SDS011;32190;49.112;8.598;2023-06-19T19:31:56;1.13;;;1.13;;
32146;SDS011;32190;49.112;8.598;2023-06-19T19:37:47;1.27;;;1.27;;
32146;SDS011;32190;49.112;8.598;2023-06-19T19:43:38;1.20;;;1.20;;
32146;SDS011;32190;49.112;8.598;2023-06-19T19:49:28;1.70;;;1.60;;
32146;SDS011;32190;49.112;8.598;2023-06-19T19:55:19;1.20;;;1.20;;
32146;SDS011;32190;49.112;8.598;2023-06-19T20:01:09;1.20;;;1.20;;
32146;SDS011;32190;49.112;8.598;2023-06-19T20:07:00;1.05;;;1.05;;
32146;SDS011;32190;49.112;8.598;2023-06-19T20:12:50;1.23;;;1.23;;
32146;SDS011;32190;49.112;8.598;2023-06-19T20:18:41;1.38;;;1.27;;
32146;SDS011;32190;49.112;8.598;2023-06-19T20:24:32;1.45;;;1.17;;
32146;SDS011;32190;49.112;8.598;2023-06-19T20:30:22;1.50;;;1.40;;
32146;SDS011;32190;49.112;8.598;2023-06-19T20:36:15;1.70;;;1.60;;
32146;SDS011;32190;49.112;8.598;2023-06-19T20:42:06;1.77;;;1.30;;
32146;SDS011;32190;49.112;8.598;2023-06-19T20:47:57;1.85;;;1.73;;
32146;SDS011;32190;49.112;8.598;2023-06-19T20:53:48;3.72;;;1.08;;
32146;SDS011;32190;49.112;8.598;2023-06-19T20:59:39;1.92;;;1.20;;
32146;SDS011;32190;49.112;8.598;2023-06-19T21:05:29;2.60;;;1.33;;
32146;SDS011;32190;49.112;8.598;2023-06-19T21:11:20;1.10;;;1.05;;
32146;SDS011;32190;49.112;8.598;2023-06-19T21:17:11;1.40;;;1.08;;
32146;SDS011;32190;49.112;8.598;2023-06-19T21:23:01;1.50;;;1.40;;
32146;SDS011;32190;49.112;8.598;2023-06-19T21:28:52;0.98;;;0.98;;
32146;SDS011;32190;49.112;8.598;2023-06-19T21:34:42;1.05;;;1.05;;
32146;SDS011;32190;49.112;8.598;2023-06-19T21:40:33;0.93;;;0.93;;
32146;SDS011;32190;49.112;8.598;2023-06-19T21:46:23;1.23;;;1.20;;
32146;SDS011;32190;49.112;8.598;2023-06-19T21:52:14;1.20;;;1.20;;
32146;SDS011;32190;49.112;8.598;2023-06-19T21:58:05;1.00;;;1.00;;
32146;SDS011;32190;49.112;8.598;2023-06-19T22:03:55;1.83;;;1.17;;
32146;SDS011;32190;49.112;8.598;2023-06-19T22:09:46;1.45;;;1.35;;
32146;SDS011;32190;49.112;8.598;2023-06-19T22:15:36;1.20;;;1.20;;
32146;SDS011;32190;49.112;8.598;2023-06-19T22:21:27;1.20;;;1.20;;
32146;SDS011;32190;49.112;8.598;2023-06-19T22:27:18;1.40;;;1.40;;
32146;SDS011;32190;49.112;8.598;2023-06-19T22:33:09;0.95;;;0.95;;
32146;SDS011;32190;49.112;8.598;2023-06-19T22:38:59;0.95;;;0.95;;
32146;SDS011;32190;49.112;8.598;2023-06-19T22:44:50;1.27;;;1.27;;
32146;SDS011;32190;49.112;8.598;2023-06-19T22:50:40;1.17;;;1.17;;
32146;SDS011;32190;49.112;8.598;2023-06-19T22:56:31;1.00;;;1.00;;
32146;SDS011;32190;49.112;8.598;2023-06-19T23:02:22;1.05;;;1.05;;
32146;SDS011;32190;49.112;8.598;2023-06-19T23:08:13;2.78;;;1.48;;
32146;SDS011;32190;49.112;8.598;2023-06-19T23:14:04;1.20;;;1.20;;
32146;SDS011;32190;49.112;8.598;2023-06-19T23:19:55;1.30;;;1.30;;
32146;SDS011;32190;49.112;8.598;2023-06-19T23:25:48;1.25;;;1.15;;
32146;SDS011;32190;49.112;8.598;2023-06-19T23:31:39;1.08;;;1.08;;
32146;SDS011;32190;49.112;8.598;2023-06-19T23:37:30;1.35;;;1.35;;
32146;SDS011;32190;49.112;8.598;2023-06-19T23:43:20;1.02;;;1.02;;
32146;SDS011;32190;49.112;8.598;2023-06-19T23:49:11;5.60;;;2.75;;
32146;SDS011;32190;49.112;8.598;2023-06-19T23:55:02;1.65;;;1.45;;
